sensor_id;sensor_type;location;lat;lon;timestamp;temperature;humidity
10175;DHT22;18221;38.704;0.152;2023-05-10T00:04:56;19.00;99.90
10175;DHT22;18221;38.704;0.152;2023-05-10T00:07:25;19.00;99.90
10175;DHT22;18221;38.704;0.152;2023-05-10T00:09:53;19.00;99.90
10175;DHT22;18221;38.704;0.152;2023-05-10T00:12:22;19.00;99.90
10175;DHT22;18221;38.704;0.152;2023-05-10T00:14:51;19.00;99.90
10175;DHT22;18221;38.704;0.152;2023-05-10T00:17:20;19.00;99.90
10175;DHT22;18221;38.704;0.152;2023-05-10T00:19:49;19.00;99.90
10175;DHT22;18221;38.704;0.152;2023-05-10T00:22:19;19.10;99.90
10175;DHT22;18221;38.704;0.152;2023-05-10T00:24:48;19.10;99.90
10175;DHT22;18221;38.704;0.152;2023-05-10T00:27:16;19.00;99.90
10175;DHT22;18221;38.704;0.152;2023-05-10T00:29:45;19.00;99.90
10175;DHT22;18221;38.704;0.152;2023-05-10T00:32:14;19.00;99.90
10175;DHT22;18221;38.704;0.152;2023-05-10T00:34:43;19.00;99.90
10175;DHT22;18221;38.704;0.152;2023-05-10T00:37:12;19.00;99.90
10175;DHT22;18221;38.704;0.152;2023-05-10T00:39:42;19.00;99.90
10175;DHT22;18221;38.704;0.152;2023-05-10T00:42:10;19.10;99.90
10175;DHT22;18221;38.704;0.152;2023-05-10T00:44:39;19.10;99.90
10175;DHT22;18221;38.704;0.152;2023-05-10T00:47:08;19.10;99.90
10175;DHT22;18221;38.704;0.152;2023-05-10T00:49:37;19.10;99.90
10175;DHT22;18221;38.704;0.152;2023-05-10T00:52:05;19.10;99.90
10175;DHT22;18221;38.704;0.152;2023-05-10T00:54:34;19.10;99.90
10175;DHT22;18221;38.704;0.152;2023-05-10T00:57:04;19.10;99.90
10175;DHT22;18221;38.704;0.152;2023-05-10T00:59:33;19.10;99.90
10175;DHT22;18221;38.704;0.152;2023-05-10T01:02:02;19.10;99.90
10175;DHT22;18221;38.704;0.152;2023-05-10T01:04:31;19.10;99.90
10175;DHT22;18221;38.704;0.152;2023-05-10T01:07:00;19.10;99.90
10175;DHT22;18221;38.704;0.152;2023-05-10T01:09:29;19.10;99.90
10175;DHT22;18221;38.704;0.152;2023-05-10T01:12:00;19.10;99.90
10175;DHT22;18221;38.704;0.152;2023-05-10T01:14:31;19.00;99.90
10175;DHT22;18221;38.704;0.152;2023-05-10T01:17:01;19.00;99.90
10175;DHT22;18221;38.704;0.152;2023-05-10T01:19:31;19.00;99.90
10175;DHT22;18221;38.704;0.152;2023-05-10T01:22:20;19.00;99.90
10175;DHT22;18221;38.704;0.152;2023-05-10T01:29:06;19.00;99.90
10175;DHT22;18221;38.704;0.152;2023-05-10T01:32:08;19.00;99.90
10175;DHT22;18221;38.704;0.152;2023-05-10T01:34:55;19.00;99.90
10175;DHT22;18221;38.704;0.152;2023-05-10T01:37:37;19.00;99.90
10175;DHT22;18221;38.704;0.152;2023-05-10T01:40:18;18.90;99.90
10175;DHT22;18221;38.704;0.152;2023-05-10T01:42:54;18.90;99.90
10175;DHT22;18221;38.704;0.152;2023-05-10T01:45:31;18.90;99.90
10175;DHT22;18221;38.704;0.152;2023-05-10T01:48:09;18.90;99.90
10175;DHT22;18221;38.704;0.152;2023-05-10T01:50:41;18.80;99.90
10175;DHT22;18221;38.704;0.152;2023-05-10T01:53:12;18.90;99.90
10175;DHT22;18221;38.704;0.152;2023-05-10T01:55:48;18.90;99.90
10175;DHT22;18221;38.704;0.152;2023-05-10T01:58:23;18.90;99.90
10175;DHT22;18221;38.704;0.152;2023-05-10T02:00:56;18.90;99.90
10175;DHT22;18221;38.704;0.152;2023-05-10T02:03:31;18.90;99.90
10175;DHT22;18221;38.704;0.152;2023-05-10T02:06:02;18.90;99.90
10175;DHT22;18221;38.704;0.152;2023-05-10T02:08:34;18.80;99.90
10175;DHT22;18221;38.704;0.152;2023-05-10T02:11:05;18.80;99.90
10175;DHT22;18221;38.704;0.152;2023-05-10T02:13:36;18.80;99.90
10175;DHT22;18221;38.704;0.152;2023-05-10T02:16:07;18.80;99.90
10175;DHT22;18221;38.704;0.152;2023-05-10T02:18:37;18.80;99.90
10175;DHT22;18221;38.704;0.152;2023-05-10T02:21:09;18.80;99.90
10175;DHT22;18221;38.704;0.152;2023-05-10T02:23:39;18.80;99.90
10175;DHT22;18221;38.704;0.152;2023-05-10T02:26:08;18.70;99.90
10175;DHT22;18221;38.704;0.152;2023-05-10T02:28:38;18.70;99.90
10175;DHT22;18221;38.704;0.152;2023-05-10T02:31:10;18.70;99.90
10175;DHT22;18221;38.704;0.152;2023-05-10T02:33:41;18.70;99.90
10175;DHT22;18221;38.704;0.152;2023-05-10T02:36:14;18.60;99.90
10175;DHT22;18221;38.704;0.152;2023-05-10T02:38:45;18.60;99.90
10175;DHT22;18221;38.704;0.152;2023-05-10T02:41:15;18.60;99.90
10175;DHT22;18221;38.704;0.152;2023-05-10T02:43:46;18.60;99.90
10175;DHT22;18221;38.704;0.152;2023-05-10T02:46:17;18.60;99.90
10175;DHT22;18221;38.704;0.152;2023-05-10T02:48:47;18.60;99.90
10175;DHT22;18221;38.704;0.152;2023-05-10T02:51:17;18.60;99.90
10175;DHT22;18221;38.704;0.152;2023-05-10T02:53:47;18.60;99.90
10175;DHT22;18221;38.704;0.152;2023-05-10T02:56:24;18.60;99.90
10175;DHT22;18221;38.704;0.152;2023-05-10T02:58:59;18.60;99.90
10175;DHT22;18221;38.704;0.152;2023-05-10T03:01:27;18.50;99.90
10175;DHT22;18221;38.704;0.152;2023-05-10T03:03:58;18.60;99.90
10175;DHT22;18221;38.704;0.152;2023-05-10T03:06:27;18.50;99.90
10175;DHT22;18221;38.704;0.152;2023-05-10T03:08:56;18.50;99.90
10175;DHT22;18221;38.704;0.152;2023-05-10T03:11:37;18.60;99.90
10175;DHT22;18221;38.704;0.152;2023-05-10T03:14:21;18.50;99.90
10175;DHT22;18221;38.704;0.152;2023-05-10T03:17:06;18.60;99.90
10175;DHT22;18221;38.704;0.152;2023-05-10T03:19:45;18.40;99.90
10175;DHT22;18221;38.704;0.152;2023-05-10T03:22:24;18.50;99.90
10175;DHT22;18221;38.704;0.152;2023-05-10T03:24:57;18.40;99.90
10175;DHT22;18221;38.704;0.152;2023-05-10T03:27:30;18.40;99.90
10175;DHT22;18221;38.704;0.152;2023-05-10T03:30:00;18.40;99.90
10175;DHT22;18221;38.704;0.152;2023-05-10T03:32:30;18.40;99.90
10175;DHT22;18221;38.704;0.152;2023-05-10T03:35:07;18.40;99.90
10175;DHT22;18221;38.704;0.152;2023-05-10T03:37:36;18.40;99.90
10175;DHT22;18221;38.704;0.152;2023-05-10T03:40:05;18.40;99.90
10175;DHT22;18221;38.704;0.152;2023-05-10T03:42:35;18.40;99.90
10175;DHT22;18221;38.704;0.152;2023-05-10T03:45:05;18.40;99.90
10175;DHT22;18221;38.704;0.152;2023-05-10T03:47:34;18.30;99.90
10175;DHT22;18221;38.704;0.152;2023-05-10T03:50:06;18.40;99.90
10175;DHT22;18221;38.704;0.152;2023-05-10T03:52:36;18.30;99.90
10175;DHT22;18221;38.704;0.152;2023-05-10T03:55:06;18.40;99.90
10175;DHT22;18221;38.704;0.152;2023-05-10T03:57:35;18.30;99.90
10175;DHT22;18221;38.704;0.152;2023-05-10T04:00:04;18.30;99.90
10175;DHT22;18221;38.704;0.152;2023-05-10T04:02:34;18.30;99.90
10175;DHT22;18221;38.704;0.152;2023-05-10T04:05:04;18.20;99.90
10175;DHT22;18221;38.704;0.152;2023-05-10T04:07:33;18.20;99.90
10175;DHT22;18221;38.704;0.152;2023-05-10T04:10:02;18.20;99.90
10175;DHT22;18221;38.704;0.152;2023-05-10T04:12:31;18.20;99.90
10175;DHT22;18221;38.704;0.152;2023-05-10T04:15:00;18.20;99.90
10175;DHT22;18221;38.704;0.152;2023-05-10T04:17:29;18.20;99.90
10175;DHT22;18221;38.704;0.152;2023-05-10T04:19:57;18.20;99.90
10175;DHT22;18221;38.704;0.152;2023-05-10T04:22:27;18.10;99.90
10175;DHT22;18221;38.704;0.152;2023-05-10T04:24:56;18.10;99.90
10175;DHT22;18221;38.704;0.152;2023-05-10T04:27:25;18.00;99.90
10175;DHT22;18221;38.704;0.152;2023-05-10T04:29:54;18.10;99.90
10175;DHT22;18221;38.704;0.152;2023-05-10T04:32:22;18.10;99.90
10175;DHT22;18221;38.704;0.152;2023-05-10T04:34:51;18.00;99.90
10175;DHT22;18221;38.704;0.152;2023-05-10T04:37:20;18.00;99.90
10175;DHT22;18221;38.704;0.152;2023-05-10T04:39:50;18.00;99.90
10175;DHT22;18221;38.704;0.152;2023-05-10T04:42:19;18.00;99.90
10175;DHT22;18221;38.704;0.152;2023-05-10T04:44:47;17.90;99.90
10175;DHT22;18221;38.704;0.152;2023-05-10T04:47:16;17.90;99.90
10175;DHT22;18221;38.704;0.152;2023-05-10T04:49:44;17.80;99.90
10175;DHT22;18221;38.704;0.152;2023-05-10T04:52:12;17.90;99.90
10175;DHT22;18221;38.704;0.152;2023-05-10T04:54:43;17.90;99.90
10175;DHT22;18221;38.704;0.152;2023-05-10T04:57:15;17.90;99.90
10175;DHT22;18221;38.704;0.152;2023-05-10T04:59:43;17.80;99.90
10175;DHT22;18221;38.704;0.152;2023-05-10T05:02:12;17.90;99.90
10175;DHT22;18221;38.704;0.152;2023-05-10T05:04:40;17.80;99.90
10175;DHT22;18221;38.704;0.152;2023-05-10T05:07:09;17.80;99.90
10175;DHT22;18221;38.704;0.152;2023-05-10T05:09:37;17.80;99.90
10175;DHT22;18221;38.704;0.152;2023-05-10T05:12:06;17.80;99.90
10175;DHT22;18221;38.704;0.152;2023-05-10T05:14:36;17.70;99.90
10175;DHT22;18221;38.704;0.152;2023-05-10T05:17:04;17.70;99.90
10175;DHT22;18221;38.704;0.152;2023-05-10T05:19:33;17.60;99.90
10175;DHT22;18221;38.704;0.152;2023-05-10T05:22:02;17.60;99.90
10175;DHT22;18221;38.704;0.152;2023-05-10T05:24:35;17.60;99.90
10175;DHT22;18221;38.704;0.152;2023-05-10T05:27:04;17.60;99.90
10175;DHT22;18221;38.704;0.152;2023-05-10T05:29:33;17.60;99.90
10175;DHT22;18221;38.704;0.152;2023-05-10T05:32:03;17.60;99.90
10175;DHT22;18221;38.704;0.152;2023-05-10T05:34:31;17.50;99.90
10175;DHT22;18221;38.704;0.152;2023-05-10T05:37:00;17.50;99.90
10175;DHT22;18221;38.704;0.152;2023-05-10T05:39:29;17.60;99.90
10175;DHT22;18221;38.704;0.152;2023-05-10T05:41:57;17.50;99.90
10175;DHT22;18221;38.704;0.152;2023-05-10T05:44:27;17.60;99.90
10175;DHT22;18221;38.704;0.152;2023-05-10T05:46:58;17.50;99.90
10175;DHT22;18221;38.704;0.152;2023-05-10T05:49:27;17.60;99.90
10175;DHT22;18221;38.704;0.152;2023-05-10T05:51:58;17.50;99.90
10175;DHT22;18221;38.704;0.152;2023-05-10T05:54:28;17.60;99.90
10175;DHT22;18221;38.704;0.152;2023-05-10T05:56:58;17.60;99.90
10175;DHT22;18221;38.704;0.152;2023-05-10T05:59:27;17.60;99.90
10175;DHT22;18221;38.704;0.152;2023-05-10T06:01:58;17.60;99.90
10175;DHT22;18221;38.704;0.152;2023-05-10T06:04:26;17.60;99.90
10175;DHT22;18221;38.704;0.152;2023-05-10T06:06:55;17.60;99.90
10175;DHT22;18221;38.704;0.152;2023-05-10T06:09:24;17.50;99.90
10175;DHT22;18221;38.704;0.152;2023-05-10T06:11:53;18.20;99.90
10175;DHT22;18221;38.704;0.152;2023-05-10T06:14:21;17.50;99.90
10175;DHT22;18221;38.704;0.152;2023-05-10T06:16:50;17.60;99.90
10175;DHT22;18221;38.704;0.152;2023-05-10T06:19:20;17.60;99.90
10175;DHT22;18221;38.704;0.152;2023-05-10T06:21:48;17.70;99.90
10175;DHT22;18221;38.704;0.152;2023-05-10T06:24:17;17.70;99.90
10175;DHT22;18221;38.704;0.152;2023-05-10T06:26:46;17.80;99.90
10175;DHT22;18221;38.704;0.152;2023-05-10T06:29:16;17.80;99.90
10175;DHT22;18221;38.704;0.152;2023-05-10T06:31:44;17.80;99.90
10175;DHT22;18221;38.704;0.152;2023-05-10T06:34:13;17.90;99.90
10175;DHT22;18221;38.704;0.152;2023-05-10T06:36:43;17.90;99.90
10175;DHT22;18221;38.704;0.152;2023-05-10T06:39:11;18.00;99.90
10175;DHT22;18221;38.704;0.152;2023-05-10T06:41:43;18.10;99.90
10175;DHT22;18221;38.704;0.152;2023-05-10T06:44:11;18.20;99.90
10175;DHT22;18221;38.704;0.152;2023-05-10T06:46:40;18.30;99.90
10175;DHT22;18221;38.704;0.152;2023-05-10T06:49:09;18.20;99.90
10175;DHT22;18221;38.704;0.152;2023-05-10T06:51:37;18.20;99.90
10175;DHT22;18221;38.704;0.152;2023-05-10T06:54:08;18.20;99.90
10175;DHT22;18221;38.704;0.152;2023-05-10T06:56:36;18.20;99.90
10175;DHT22;18221;38.704;0.152;2023-05-10T06:59:09;18.20;99.90
10175;DHT22;18221;38.704;0.152;2023-05-10T07:01:38;18.30;99.90
10175;DHT22;18221;38.704;0.152;2023-05-10T07:04:07;18.30;99.90
10175;DHT22;18221;38.704;0.152;2023-05-10T07:06:35;18.20;99.90
10175;DHT22;18221;38.704;0.152;2023-05-10T07:09:04;18.20;99.90
10175;DHT22;18221;38.704;0.152;2023-05-10T07:11:35;18.10;99.90
10175;DHT22;18221;38.704;0.152;2023-05-10T07:14:04;18.10;99.90
10175;DHT22;18221;38.704;0.152;2023-05-10T07:16:33;18.10;99.90
10175;DHT22;18221;38.704;0.152;2023-05-10T07:19:01;18.20;99.90
10175;DHT22;18221;38.704;0.152;2023-05-10T07:21:31;18.20;99.90
10175;DHT22;18221;38.704;0.152;2023-05-10T07:24:01;18.20;99.90
10175;DHT22;18221;38.704;0.152;2023-05-10T07:26:29;18.30;99.90
10175;DHT22;18221;38.704;0.152;2023-05-10T07:28:59;18.30;99.90
10175;DHT22;18221;38.704;0.152;2023-05-10T07:31:28;18.40;99.90
10175;DHT22;18221;38.704;0.152;2023-05-10T07:33:56;18.30;99.90
10175;DHT22;18221;38.704;0.152;2023-05-10T07:36:25;18.40;99.90
10175;DHT22;18221;38.704;0.152;2023-05-10T07:38:56;18.30;99.90
10175;DHT22;18221;38.704;0.152;2023-05-10T07:41:25;19.10;99.90
10175;DHT22;18221;38.704;0.152;2023-05-10T07:43:53;18.40;99.90
10175;DHT22;18221;38.704;0.152;2023-05-10T07:46:24;18.50;99.90
10175;DHT22;18221;38.704;0.152;2023-05-10T07:48:52;18.60;99.90
10175;DHT22;18221;38.704;0.152;2023-05-10T07:51:21;18.80;99.90
10175;DHT22;18221;38.704;0.152;2023-05-10T07:53:49;19.00;99.90
10175;DHT22;18221;38.704;0.152;2023-05-10T07:56:22;19.20;99.90
10175;DHT22;18221;38.704;0.152;2023-05-10T07:58:53;19.40;99.90
10175;DHT22;18221;38.704;0.152;2023-05-10T08:01:24;19.60;99.90
10175;DHT22;18221;38.704;0.152;2023-05-10T08:03:53;19.80;99.90
10175;DHT22;18221;38.704;0.152;2023-05-10T08:06:22;20.00;99.90
10175;DHT22;18221;38.704;0.152;2023-05-10T08:08:52;20.20;99.90
10175;DHT22;18221;38.704;0.152;2023-05-10T08:11:22;20.50;99.90
10175;DHT22;18221;38.704;0.152;2023-05-10T08:13:51;20.90;99.90
10175;DHT22;18221;38.704;0.152;2023-05-10T08:16:20;20.90;99.90
10175;DHT22;18221;38.704;0.152;2023-05-10T08:18:50;21.00;99.90
10175;DHT22;18221;38.704;0.152;2023-05-10T08:21:21;20.90;99.90
10175;DHT22;18221;38.704;0.152;2023-05-10T08:23:50;21.00;99.90
10175;DHT22;18221;38.704;0.152;2023-05-10T08:26:18;20.90;99.90
10175;DHT22;18221;38.704;0.152;2023-05-10T08:28:47;21.00;99.90
10175;DHT22;18221;38.704;0.152;2023-05-10T08:31:16;20.90;99.90
10175;DHT22;18221;38.704;0.152;2023-05-10T08:33:44;21.00;99.90
10175;DHT22;18221;38.704;0.152;2023-05-10T08:36:14;20.90;99.90
10175;DHT22;18221;38.704;0.152;2023-05-10T08:38:49;20.80;99.90
10175;DHT22;18221;38.704;0.152;2023-05-10T08:41:20;20.70;99.90
10175;DHT22;18221;38.704;0.152;2023-05-10T08:43:51;20.60;99.90
10175;DHT22;18221;38.704;0.152;2023-05-10T08:46:21;20.50;99.90
10175;DHT22;18221;38.704;0.152;2023-05-10T08:48:51;20.40;99.90
10175;DHT22;18221;38.704;0.152;2023-05-10T08:51:25;20.30;99.90
10175;DHT22;18221;38.704;0.152;2023-05-10T08:53:58;20.20;99.90
10175;DHT22;18221;38.704;0.152;2023-05-10T08:56:27;20.20;99.90
10175;DHT22;18221;38.704;0.152;2023-05-10T08:58:56;20.10;99.90
10175;DHT22;18221;38.704;0.152;2023-05-10T09:01:27;20.00;99.90
10175;DHT22;18221;38.704;0.152;2023-05-10T09:03:56;20.10;99.90
10175;DHT22;18221;38.704;0.152;2023-05-10T09:06:28;20.10;99.90
10175;DHT22;18221;38.704;0.152;2023-05-10T09:08:58;20.20;99.90
10175;DHT22;18221;38.704;0.152;2023-05-10T09:11:29;20.30;99.90
10175;DHT22;18221;38.704;0.152;2023-05-10T09:13:58;20.40;99.90
10175;DHT22;18221;38.704;0.152;2023-05-10T09:16:26;20.50;99.90
10175;DHT22;18221;38.704;0.152;2023-05-10T09:18:56;20.50;99.90
10175;DHT22;18221;38.704;0.152;2023-05-10T09:21:26;20.50;99.90
10175;DHT22;18221;38.704;0.152;2023-05-10T09:23:55;20.50;99.90
10175;DHT22;18221;38.704;0.152;2023-05-10T09:26:24;20.60;99.90
10175;DHT22;18221;38.704;0.152;2023-05-10T09:28:55;20.70;99.90
10175;DHT22;18221;38.704;0.152;2023-05-10T09:31:25;20.70;99.90
10175;DHT22;18221;38.704;0.152;2023-05-10T09:34:16;20.80;99.90
10175;DHT22;18221;38.704;0.152;2023-05-10T09:36:55;20.80;99.90
10175;DHT22;18221;38.704;0.152;2023-05-10T09:39:31;20.90;99.90
10175;DHT22;18221;38.704;0.152;2023-05-10T09:42:02;20.90;99.90
10175;DHT22;18221;38.704;0.152;2023-05-10T09:44:33;20.90;99.90
10175;DHT22;18221;38.704;0.152;2023-05-10T09:47:02;20.90;99.90
10175;DHT22;18221;38.704;0.152;2023-05-10T09:49:31;20.80;99.90
10175;DHT22;18221;38.704;0.152;2023-05-10T09:52:04;20.80;99.90
10175;DHT22;18221;38.704;0.152;2023-05-10T09:54:34;20.80;99.90
10175;DHT22;18221;38.704;0.152;2023-05-10T09:57:03;20.90;99.90
10175;DHT22;18221;38.704;0.152;2023-05-10T09:59:33;20.90;99.90
10175;DHT22;18221;38.704;0.152;2023-05-10T10:02:03;21.00;99.90
10175;DHT22;18221;38.704;0.152;2023-05-10T10:04:31;21.00;99.90
10175;DHT22;18221;38.704;0.152;2023-05-10T10:07:03;21.00;99.90
10175;DHT22;18221;38.704;0.152;2023-05-10T10:09:33;21.10;99.90
10175;DHT22;18221;38.704;0.152;2023-05-10T10:12:03;21.10;99.90
10175;DHT22;18221;38.704;0.152;2023-05-10T10:14:32;21.00;99.90
10175;DHT22;18221;38.704;0.152;2023-05-10T10:17:01;21.10;99.90
10175;DHT22;18221;38.704;0.152;2023-05-10T10:19:33;21.20;99.90
10175;DHT22;18221;38.704;0.152;2023-05-10T10:22:04;21.20;99.90
10175;DHT22;18221;38.704;0.152;2023-05-10T10:24:33;21.20;99.90
10175;DHT22;18221;38.704;0.152;2023-05-10T10:27:15;21.30;99.90
10175;DHT22;18221;38.704;0.152;2023-05-10T10:29:58;21.40;99.90
10175;DHT22;18221;38.704;0.152;2023-05-10T10:32:40;21.40;99.90
10175;DHT22;18221;38.704;0.152;2023-05-10T10:35:25;21.30;99.90
10175;DHT22;18221;38.704;0.152;2023-05-10T10:37:57;21.20;99.90
10175;DHT22;18221;38.704;0.152;2023-05-10T10:40:26;21.10;99.90
10175;DHT22;18221;38.704;0.152;2023-05-10T10:42:56;21.20;99.90
10175;DHT22;18221;38.704;0.152;2023-05-10T10:45:25;21.20;99.90
10175;DHT22;18221;38.704;0.152;2023-05-10T10:48:20;21.20;99.90
10175;DHT22;18221;38.704;0.152;2023-05-10T10:50:56;21.30;99.90
10175;DHT22;18221;38.704;0.152;2023-05-10T10:53:28;21.40;99.90
10175;DHT22;18221;38.704;0.152;2023-05-10T10:56:07;21.40;99.90
10175;DHT22;18221;38.704;0.152;2023-05-10T10:58:38;21.50;99.90
10175;DHT22;18221;38.704;0.152;2023-05-10T11:01:14;21.50;99.90
10175;DHT22;18221;38.704;0.152;2023-05-10T11:04:17;21.50;99.90
10175;DHT22;18221;38.704;0.152;2023-05-10T11:06:48;21.60;99.90
10175;DHT22;18221;38.704;0.152;2023-05-10T11:09:19;21.60;99.90
10175;DHT22;18221;38.704;0.152;2023-05-10T11:11:54;21.60;99.90
10175;DHT22;18221;38.704;0.152;2023-05-10T11:14:25;21.60;99.90
10175;DHT22;18221;38.704;0.152;2023-05-10T11:16:54;21.60;99.90
10175;DHT22;18221;38.704;0.152;2023-05-10T11:19:27;21.80;99.90
10175;DHT22;18221;38.704;0.152;2023-05-10T11:22:12;21.70;99.90
10175;DHT22;18221;38.704;0.152;2023-05-10T11:24:56;21.70;99.90
10175;DHT22;18221;38.704;0.152;2023-05-10T11:27:25;21.90;99.90
10175;DHT22;18221;38.704;0.152;2023-05-10T11:29:54;22.00;99.90
10175;DHT22;18221;38.704;0.152;2023-05-10T11:32:23;21.90;99.90
10175;DHT22;18221;38.704;0.152;2023-05-10T11:34:52;21.70;99.90
10175;DHT22;18221;38.704;0.152;2023-05-10T11:37:21;21.90;99.90
10175;DHT22;18221;38.704;0.152;2023-05-10T11:39:51;22.00;99.90
10175;DHT22;18221;38.704;0.152;2023-05-10T11:42:23;22.10;99.90
10175;DHT22;18221;38.704;0.152;2023-05-10T11:44:52;22.30;99.90
10175;DHT22;18221;38.704;0.152;2023-05-10T11:47:23;22.40;99.90
10175;DHT22;18221;38.704;0.152;2023-05-10T11:49:52;22.40;99.90
10175;DHT22;18221;38.704;0.152;2023-05-10T11:52:23;22.40;99.90
10175;DHT22;18221;38.704;0.152;2023-05-10T11:54:54;22.50;99.90
10175;DHT22;18221;38.704;0.152;2023-05-10T11:57:27;22.50;99.90
10175;DHT22;18221;38.704;0.152;2023-05-10T11:59:57;22.60;99.90
10175;DHT22;18221;38.704;0.152;2023-05-10T12:02:26;22.70;99.90
10175;DHT22;18221;38.704;0.152;2023-05-10T12:04:55;23.60;99.90
10175;DHT22;18221;38.704;0.152;2023-05-10T12:07:25;22.80;99.90
10175;DHT22;18221;38.704;0.152;2023-05-10T12:10:07;22.70;99.90
10175;DHT22;18221;38.704;0.152;2023-05-10T12:12:42;22.60;99.90
10175;DHT22;18221;38.704;0.152;2023-05-10T12:15:12;22.80;99.90
10175;DHT22;18221;38.704;0.152;2023-05-10T12:17:46;22.80;99.90
10175;DHT22;18221;38.704;0.152;2023-05-10T12:20:18;22.90;99.90
10175;DHT22;18221;38.704;0.152;2023-05-10T12:22:50;22.80;99.90
10175;DHT22;18221;38.704;0.152;2023-05-10T12:25:22;22.70;99.90
10175;DHT22;18221;38.704;0.152;2023-05-10T12:27:53;22.70;99.90
10175;DHT22;18221;38.704;0.152;2023-05-10T12:30:24;22.80;99.90
10175;DHT22;18221;38.704;0.152;2023-05-10T12:32:59;22.80;99.90
10175;DHT22;18221;38.704;0.152;2023-05-10T12:35:32;22.80;99.90
10175;DHT22;18221;38.704;0.152;2023-05-10T12:38:25;22.80;99.90
10175;DHT22;18221;38.704;0.152;2023-05-10T12:40:58;22.90;99.90
10175;DHT22;18221;38.704;0.152;2023-05-10T12:43:28;22.80;99.90
10175;DHT22;18221;38.704;0.152;2023-05-10T12:45:57;22.90;99.90
10175;DHT22;18221;38.704;0.152;2023-05-10T12:48:26;22.80;99.90
10175;DHT22;18221;38.704;0.152;2023-05-10T12:50:55;22.70;99.90
10175;DHT22;18221;38.704;0.152;2023-05-10T12:53:23;22.80;99.90
10175;DHT22;18221;38.704;0.152;2023-05-10T12:55:52;22.80;99.90
10175;DHT22;18221;38.704;0.152;2023-05-10T12:58:22;22.80;99.90
10175;DHT22;18221;38.704;0.152;2023-05-10T13:00:51;22.80;99.90
10175;DHT22;18221;38.704;0.152;2023-05-10T13:03:20;22.80;99.90
10175;DHT22;18221;38.704;0.152;2023-05-10T13:05:49;22.80;99.90
10175;DHT22;18221;38.704;0.152;2023-05-10T13:08:17;22.90;99.90
10175;DHT22;18221;38.704;0.152;2023-05-10T13:10:46;23.00;99.90
10175;DHT22;18221;38.704;0.152;2023-05-10T13:13:15;23.00;99.90
10175;DHT22;18221;38.704;0.152;2023-05-10T13:15:46;22.90;99.90
10175;DHT22;18221;38.704;0.152;2023-05-10T13:18:14;22.90;99.90
10175;DHT22;18221;38.704;0.152;2023-05-10T13:20:42;22.90;99.90
10175;DHT22;18221;38.704;0.152;2023-05-10T13:23:11;23.10;99.90
10175;DHT22;18221;38.704;0.152;2023-05-10T13:25:40;23.00;99.90
10175;DHT22;18221;38.704;0.152;2023-05-10T13:28:08;23.10;99.90
10175;DHT22;18221;38.704;0.152;2023-05-10T13:30:37;23.20;99.90
10175;DHT22;18221;38.704;0.152;2023-05-10T13:33:07;23.10;99.90
10175;DHT22;18221;38.704;0.152;2023-05-10T13:35:35;23.10;99.90
10175;DHT22;18221;38.704;0.152;2023-05-10T13:38:04;23.10;99.90
10175;DHT22;18221;38.704;0.152;2023-05-10T13:40:34;23.10;99.90
10175;DHT22;18221;38.704;0.152;2023-05-10T13:43:02;23.00;99.90
10175;DHT22;18221;38.704;0.152;2023-05-10T13:45:31;23.00;99.90
10175;DHT22;18221;38.704;0.152;2023-05-10T13:47:59;22.90;99.90
10175;DHT22;18221;38.704;0.152;2023-05-10T13:50:30;22.90;99.90
10175;DHT22;18221;38.704;0.152;2023-05-10T13:52:58;23.00;99.90
10175;DHT22;18221;38.704;0.152;2023-05-10T13:55:27;23.10;99.90
10175;DHT22;18221;38.704;0.152;2023-05-10T13:57:56;22.90;99.90
10175;DHT22;18221;38.704;0.152;2023-05-10T14:00:25;23.00;99.90
10175;DHT22;18221;38.704;0.152;2023-05-10T14:02:54;23.00;99.90
10175;DHT22;18221;38.704;0.152;2023-05-10T14:05:23;23.00;99.90
10175;DHT22;18221;38.704;0.152;2023-05-10T14:07:55;22.90;99.90
10175;DHT22;18221;38.704;0.152;2023-05-10T14:10:23;22.80;99.90
10175;DHT22;18221;38.704;0.152;2023-05-10T14:12:52;22.90;99.90
10175;DHT22;18221;38.704;0.152;2023-05-10T14:15:21;22.80;99.90
10175;DHT22;18221;38.704;0.152;2023-05-10T14:17:49;22.90;99.90
10175;DHT22;18221;38.704;0.152;2023-05-10T14:20:18;23.00;99.90
10175;DHT22;18221;38.704;0.152;2023-05-10T14:22:47;23.10;99.90
10175;DHT22;18221;38.704;0.152;2023-05-10T14:25:19;23.00;99.90
10175;DHT22;18221;38.704;0.152;2023-05-10T14:27:47;22.90;99.90
10175;DHT22;18221;38.704;0.152;2023-05-10T14:30:17;22.90;99.90
10175;DHT22;18221;38.704;0.152;2023-05-10T14:32:46;22.90;99.90
10175;DHT22;18221;38.704;0.152;2023-05-10T14:35:15;22.90;99.90
10175;DHT22;18221;38.704;0.152;2023-05-10T14:37:43;23.00;99.90
10175;DHT22;18221;38.704;0.152;2023-05-10T14:40:13;23.00;99.90
10175;DHT22;18221;38.704;0.152;2023-05-10T14:42:44;23.10;99.90
10175;DHT22;18221;38.704;0.152;2023-05-10T14:45:13;23.10;99.90
10175;DHT22;18221;38.704;0.152;2023-05-10T14:47:42;23.20;99.90
10175;DHT22;18221;38.704;0.152;2023-05-10T14:50:11;23.20;99.90
10175;DHT22;18221;38.704;0.152;2023-05-10T14:52:40;23.30;99.90
10175;DHT22;18221;38.704;0.152;2023-05-10T14:55:09;23.30;99.90
10175;DHT22;18221;38.704;0.152;2023-05-10T14:57:38;23.30;99.90
10175;DHT22;18221;38.704;0.152;2023-05-10T15:00:10;23.30;99.90
10175;DHT22;18221;38.704;0.152;2023-05-10T15:02:41;23.30;99.90
10175;DHT22;18221;38.704;0.152;2023-05-10T15:05:10;23.30;99.90
10175;DHT22;18221;38.704;0.152;2023-05-10T15:07:39;23.20;99.90
10175;DHT22;18221;38.704;0.152;2023-05-10T15:10:10;23.20;99.90
10175;DHT22;18221;38.704;0.152;2023-05-10T15:12:40;23.20;99.90
10175;DHT22;18221;38.704;0.152;2023-05-10T15:15:10;23.20;99.90
10175;DHT22;18221;38.704;0.152;2023-05-10T15:17:39;23.30;99.90
10175;DHT22;18221;38.704;0.152;2023-05-10T15:20:08;23.30;99.90
10175;DHT22;18221;38.704;0.152;2023-05-10T15:22:37;23.40;99.90
10175;DHT22;18221;38.704;0.152;2023-05-10T15:25:06;23.40;99.90
10175;DHT22;18221;38.704;0.152;2023-05-10T15:27:35;23.40;99.90
10175;DHT22;18221;38.704;0.152;2023-05-10T15:30:05;23.40;99.90
10175;DHT22;18221;38.704;0.152;2023-05-10T15:32:37;23.40;99.90
10175;DHT22;18221;38.704;0.152;2023-05-10T15:35:07;23.30;99.90
10175;DHT22;18221;38.704;0.152;2023-05-10T15:37:36;23.40;99.90
10175;DHT22;18221;38.704;0.152;2023-05-10T15:40:06;23.40;99.90
10175;DHT22;18221;38.704;0.152;2023-05-10T15:42:35;23.30;99.90
10175;DHT22;18221;38.704;0.152;2023-05-10T15:45:05;23.30;99.90
10175;DHT22;18221;38.704;0.152;2023-05-10T15:47:36;23.20;99.90
10175;DHT22;18221;38.704;0.152;2023-05-10T15:50:06;23.30;99.90
10175;DHT22;18221;38.704;0.152;2023-05-10T15:52:35;23.20;99.90
10175;DHT22;18221;38.704;0.152;2023-05-10T15:55:05;23.20;99.90
10175;DHT22;18221;38.704;0.152;2023-05-10T15:57:38;23.10;99.90
10175;DHT22;18221;38.704;0.152;2023-05-10T16:00:09;23.10;99.90